Oakfield, New York
Current Conditions -  °F | °C
As of 7:54 PM on Friday 19 Dec 2014 (Local Time) from KBUF Reporting Station
Overcast Overcast  
Wind Chill: 22°   Ceiling: 2400
Heat Index: 29°   Visibility: 10mi
Dew Point: 21°   Wind: 7mph
Humidity: 72%   Direction: 260°W
Pressure: 30.24"   Gusts: NA
Location:  43.07°N, 78.27°W
Report Text: KBUF 200054Z 26006KT 10SM OVC024 M02/M06 A3024 RMK AO2 SLP251 T10171061
Loading
Personal Weather Stations






























Interactive Weather Map New forecast layout! Learn more

10-Day Weather Forecast

Advertisements
Track Severe Weather on mobile